Time;durP1;ratioP1;P1;durP2;ratioP2;P2;SDS_P1;SDS_P2;PMS_P1;PMS_P2;Temp;Humidity;BMP_temperature;BMP_pressure;BME280_temperature;BME280_humidity;BME280_pressure;Samples;Min_cycle;Max_cycle;Signal;HPM_P1;HPM_P2
2021/12/18 00:00:24;;;;;;;1.65;0.95;;;6.60;87.70;;;;;;4131741;28;20077;-77
2021/12/18 00:02:27;;;;;;;4.05;0.95;;;6.50;87.60;;;;;;4131080;28;20030;-77
2021/12/18 00:04:27;;;;;;;1.75;0.80;;;6.60;87.70;;;;;;4133579;28;20555;-77
2021/12/18 00:06:29;;;;;;;3.10;0.90;;;6.60;87.50;;;;;;4154839;28;20041;-77
2021/12/18 00:08:30;;;;;;;0.95;0.50;;;6.60;87.60;;;;;;4134417;28;20038;-76
2021/12/18 00:10:30;;;;;;;3.08;1.00;;;6.50;88.20;;;;;;4140471;28;20065;-76
2021/12/18 00:12:31;;;;;;;2.33;0.88;;;6.60;87.60;;;;;;4138918;28;20652;-77
2021/12/18 00:14:32;;;;;;;1.35;0.73;;;6.60;87.60;;;;;;4140219;28;20026;-76
2021/12/18 00:16:32;;;;;;;3.58;0.82;;;6.60;87.50;;;;;;4113993;28;20037;-76
2021/12/18 00:18:34;;;;;;;2.20;1.05;;;6.60;87.60;;;;;;4132664;28;20125;-77
2021/12/18 00:20:38;;;;;;;9.05;2.72;;;6.60;87.50;;;;;;4137664;28;20479;-77
2021/12/18 00:22:39;;;;;;;6.25;2.00;;;6.60;87.50;;;;;;4137273;28;20480;-76
2021/12/18 00:24:39;;;;;;;3.00;1.48;;;6.60;87.40;;;;;;4141001;28;20037;-76
2021/12/18 00:26:40;;;;;;;1.27;0.80;;;6.70;87.50;;;;;;4142369;28;20037;-76
2021/12/18 00:28:41;;;;;;;3.08;0.77;;;6.70;87.50;;;;;;4136646;28;20038;-76
2021/12/18 00:30:41;;;;;;;1.75;0.80;;;6.70;87.40;;;;;;4127532;28;20088;-76
2021/12/18 00:32:44;;;;;;;2.20;0.80;;;6.70;87.40;;;;;;4137514;28;20088;-76
2021/12/18 00:34:45;;;;;;;1.75;0.63;;;6.70;87.30;;;;;;4107792;28;20035;-76
2021/12/18 00:36:46;;;;;;;1.23;0.60;;;6.70;87.20;;;;;;4121795;28;20060;-76
2021/12/18 00:38:46;;;;;;;2.22;0.57;;;6.70;87.20;;;;;;4135403;28;20042;-76
2021/12/18 00:40:59;;;;;;;0.95;0.52;;;6.70;87.20;;;;;;4133115;28;20510;-77
2021/12/18 00:43:03;;;;;;;1.15;0.70;;;6.70;87.10;;;;;;4129590;28;20030;-77
2021/12/18 00:45:05;;;;;;;1.75;0.70;;;6.70;87.10;;;;;;4143046;28;20037;-77
2021/12/18 00:47:06;;;;;;;1.83;0.90;;;6.70;87.00;;;;;;4140538;28;20073;-77
2021/12/18 00:49:07;;;;;;;1.00;0.80;;;6.70;86.90;;;;;;4138444;28;20073;-77
2021/12/18 00:51:10;;;;;;;1.02;0.63;;;6.70;86.90;;;;;;4135672;28;20112;-76
2021/12/18 00:53:11;;;;;;;1.17;0.50;;;6.70;86.90;;;;;;4134947;28;20026;-76
2021/12/18 00:55:11;;;;;;;1.33;0.50;;;6.70;86.80;;;;;;4135120;28;20065;-77
2021/12/18 00:57:12;;;;;;;0.82;0.40;;;6.70;86.70;;;;;;4132606;28;20622;-76
2021/12/18 00:59:13;;;;;;;2.70;0.70;;;6.70;86.60;;;;;;4134376;28;20030;-77
2021/12/18 01:01:13;;;;;;;0.68;0.30;;;6.70;86.40;;;;;;4122038;28;20027;-76
2021/12/18 01:03:18;;;;;;;0.45;0.30;;;6.60;86.40;;;;;;4136116;28;20458;-76
2021/12/18 01:05:19;;;;;;;2.60;0.40;;;6.60;86.30;;;;;;4129956;28;20036;-76
2021/12/18 01:07:19;;;;;;;1.42;0.40;;;6.60;86.30;;;;;;4130759;28;20496;-77
2021/12/18 01:09:28;;;;;;;1.25;0.50;;;6.60;86.30;;;;;;4137254;28;20103;-76
2021/12/18 01:11:35;;;;;;;0.60;0.38;;;6.50;86.20;;;;;;4137146;28;20472;-76
2021/12/18 01:13:47;;;;;;;0.52;0.30;;;6.50;86.20;;;;;;4141253;28;20031;-76
2021/12/18 01:15:51;;;;;;;0.85;0.50;;;6.50;86.40;;;;;;4129302;28;20034;-76
2021/12/18 01:24:45;;;;;;;2.07;0.40;;;6.50;86.70;;;;;;4138568;28;20018;-76
2021/12/18 01:26:46;;;;;;;0.47;0.40;;;6.40;86.90;;;;;;4085797;29;20038;-76
2021/12/18 01:28:46;;;;;;;0.73;0.50;;;6.40;86.90;;;;;;4132282;28;20034;-76
2021/12/18 01:30:47;;;;;;;0.80;0.45;;;6.40;86.90;;;;;;4125832;28;20048;-76
2021/12/18 01:32:48;;;;;;;0.95;0.50;;;6.40;87.00;;;;;;4135759;28;20041;-76
2021/12/18 01:34:48;;;;;;;0.73;0.40;;;6.40;87.00;;;;;;4129857;28;20053;-77
2021/12/18 01:36:49;;;;;;;0.40;0.40;;;6.40;86.90;;;;;;4130714;28;20031;-76
2021/12/18 01:38:50;;;;;;;0.35;0.32;;;6.30;86.90;;;;;;4116206;28;20532;-76
2021/12/18 01:40:50;;;;;;;0.40;0.20;;;6.30;86.90;;;;;;4131892;28;20052;-76
2021/12/18 01:54:10;;;;;;;0.75;0.17;;;6.30;86.80;;;;;;4121418;28;20042;-76
2021/12/18 01:56:11;;;;;;;1.02;0.50;;;6.30;86.90;;;;;;4147972;28;20078;-76
2021/12/18 01:58:11;;;;;;;0.68;0.20;;;6.30;87.00;;;;;;4139128;28;20069;-76
2021/12/18 02:00:21;;;;;;;0.50;0.35;;;6.30;87.10;;;;;;4134262;28;20104;-77
2021/12/18 02:02:22;;;;;;;0.20;0.20;;;6.30;87.10;;;;;;4118828;28;20110;-77
2021/12/18 02:04:22;;;;;;;1.98;0.30;;;6.30;87.20;;;;;;4131082;28;20588;-77
2021/12/18 02:06:23;;;;;;;0.47;0.28;;;6.30;87.20;;;;;;4131757;28;20026;-77
2021/12/18 02:08:25;;;;;;;0.40;0.30;;;6.30;87.10;;;;;;4134194;28;20061;-77
2021/12/18 02:10:29;;;;;;;0.60;0.40;;;6.30;87.10;;;;;;4131289;28;20405;-77
2021/12/18 02:12:43;;;;;;;0.68;0.30;;;6.30;87.00;;;;;;4138920;28;20029;-77
2021/12/18 02:21:31;;;;;;;1.75;0.35;;;6.30;86.90;;;;;;4117706;28;20511;-77
2021/12/18 02:23:36;;;;;;;0.45;0.28;;;6.30;87.00;;;;;;4139698;28;20511;-77
2021/12/18 02:25:37;;;;;;;0.60;0.40;;;6.30;87.10;;;;;;4133139;28;20407;-76
2021/12/18 02:27:38;;;;;;;0.40;0.30;;;6.30;87.10;;;;;;4130394;28;20022;-76
2021/12/18 02:29:40;;;;;;;0.55;0.25;;;6.30;87.10;;;;;;4130528;28;20543;-76
2021/12/18 02:31:41;;;;;;;0.50;0.30;;;6.30;87.00;;;;;;4179142;23;20037;-74
2021/12/18 02:33:42;;;;;;;0.40;0.30;;;6.30;87.00;;;;;;4185496;28;20569;-74
2021/12/18 02:35:47;;;;;;;0.80;0.40;;;6.20;86.90;;;;;;4165165;28;20025;-74
2021/12/18 02:37:48;;;;;;;0.30;0.30;;;6.20;87.10;;;;;;4166010;28;20404;-74
2021/12/18 02:42:20;;;;;;;1.23;0.40;;;6.20;87.10;;;;;;4126656;28;20500;-74
2021/12/18 02:44:21;;;;;;;2.13;0.45;;;6.20;87.20;;;;;;4147424;28;20033;-73
2021/12/18 02:46:21;;;;;;;0.85;0.40;;;6.20;88.00;;;;;;4147629;28;20060;-74
2021/12/18 02:48:22;;;;;;;0.70;0.32;;;6.20;87.30;;;;;;4148693;28;20483;-74
2021/12/18 02:50:22;;;;;;;0.98;0.30;;;6.20;87.30;;;;;;4165427;28;20064;-73
2021/12/18 02:52:30;;;;;;;1.15;0.47;;;6.20;87.30;;;;;;4147814;28;20037;-73
2021/12/18 02:54:31;;;;;;;0.73;0.50;;;6.20;87.30;;;;;;4165737;28;20037;-74
2021/12/18 02:56:31;;;;;;;0.75;0.50;;;6.20;87.10;;;;;;4164775;28;20025;-73
2021/12/18 02:58:38;;;;;;;2.30;0.30;;;6.20;87.20;;;;;;4149792;28;20506;-74
2021/12/18 03:00:39;;;;;;;0.30;0.30;;;6.20;87.30;;;;;;4138683;28;20041;-73
2021/12/18 03:02:43;;;;;;;1.13;0.50;;;6.20;87.40;;;;;;4153351;28;20018;-74
2021/12/18 03:04:47;;;;;;;0.57;0.40;;;6.10;87.30;;;;;;4155927;28;20028;-73
2021/12/18 03:06:53;;;;;;;1.20;0.60;;;6.20;87.50;;;;;;4149579;28;20453;-72
2021/12/18 03:26:29;;;;;;;0.82;0.40;;;6.10;88.40;;;;;;4155291;28;20132;-73
2021/12/18 03:28:29;;;;;;;0.60;0.43;;;6.10;87.70;;;;;;4146437;28;20217;-73
2021/12/18 03:30:30;;;;;;;0.55;0.47;;;6.10;87.70;;;;;;4150547;28;20049;-71
2021/12/18 03:32:31;;;;;;;0.85;0.30;;;6.10;87.80;;;;;;4148744;28;20062;-73
2021/12/18 03:34:32;;;;;;;0.73;0.38;;;6.10;87.80;;;;;;4147988;28;20026;-74
2021/12/18 03:36:32;;;;;;;0.30;0.30;;;6.00;87.80;;;;;;4151623;28;20029;-73
2021/12/18 03:38:33;;;;;;;0.60;0.30;;;6.10;87.90;;;;;;4147623;28;20044;-74
2021/12/18 03:40:34;;;;;;;0.60;0.32;;;6.10;88.00;;;;;;4143264;28;20524;-74
2021/12/18 03:42:34;;;;;;;0.30;0.28;;;6.00;88.70;;;;;;4145407;28;20092;-74
2021/12/18 03:44:35;;;;;;;1.25;0.30;;;6.10;88.10;;;;;;4144256;28;20064;-74
2021/12/18 03:46:36;;;;;;;0.45;0.32;;;6.10;88.10;;;;;;4146759;28;20042;-74
2021/12/18 03:48:36;;;;;;;0.52;0.32;;;6.10;88.00;;;;;;4159345;28;20176;-73
2021/12/18 03:50:37;;;;;;;0.40;0.40;;;6.10;88.00;;;;;;4146408;28;20115;-74
2021/12/18 03:52:37;;;;;;;0.40;0.30;;;6.10;87.90;;;;;;4166902;28;20064;-74
2021/12/18 03:54:38;;;;;;;1.33;0.40;;;6.10;88.00;;;;;;4144461;28;20034;-74
2021/12/18 03:56:39;;;;;;;0.43;0.30;;;6.00;87.90;;;;;;4149526;28;20038;-74
2021/12/18 03:58:39;;;;;;;2.80;0.30;;;6.10;88.00;;;;;;4146613;28;20036;-74
2021/12/18 04:00:40;;;;;;;0.30;0.28;;;6.10;88.00;;;;;;4150378;28;20025;-74
2021/12/18 04:02:41;;;;;;;0.82;0.47;;;6.10;87.90;;;;;;4154641;28;20436;-73
2021/12/18 04:04:41;;;;;;;0.77;0.43;;;6.10;87.80;;;;;;4134454;28;20022;-74
2021/12/18 04:06:42;;;;;;;1.02;0.60;;;6.10;88.00;;;;;;4148137;28;20109;-74
2021/12/18 04:08:43;;;;;;;1.05;0.63;;;6.10;87.90;;;;;;4160824;28;20535;-73
2021/12/18 04:10:43;;;;;;;0.98;0.50;;;6.10;88.00;;;;;;4149576;28;20067;-74
2021/12/18 04:12:46;;;;;;;0.93;0.60;;;6.10;88.10;;;;;;4150941;28;20176;-75
2021/12/18 04:14:46;;;;;;;1.38;0.50;;;6.10;88.10;;;;;;4156605;28;20036;-75
2021/12/18 04:16:47;;;;;;;1.30;0.80;;;6.10;88.20;;;;;;4151620;28;20533;-74
2021/12/18 04:18:47;;;;;;;1.15;0.88;;;6.10;88.20;;;;;;4153659;28;20109;-75
2021/12/18 04:20:48;;;;;;;0.80;0.52;;;6.10;88.30;;;;;;4165267;28;20517;-75
2021/12/18 04:22:49;;;;;;;0.85;0.60;;;6.10;88.20;;;;;;4146769;28;20076;-75
2021/12/18 04:24:49;;;;;;;1.23;0.55;;;6.20;88.30;;;;;;4153277;28;20026;-75
2021/12/18 04:26:50;;;;;;;0.95;0.63;;;6.20;88.40;;;;;;4170372;28;20032;-74
2021/12/18 04:28:51;;;;;;;0.93;0.68;;;6.10;88.30;;;;;;4151742;28;20403;-74
2021/12/18 04:30:51;;;;;;;1.40;0.70;;;6.10;88.30;;;;;;4144945;28;20029;-75
2021/12/18 04:32:52;;;;;;;0.75;0.60;;;6.20;88.40;;;;;;4151073;28;20063;-73
2021/12/18 04:34:53;;;;;;;1.40;0.60;;;6.20;88.40;;;;;;4165118;28;20051;-74
2021/12/18 04:36:53;;;;;;;1.40;0.73;;;6.20;88.30;;;;;;4150628;28;20044;-74
2021/12/18 04:38:54;;;;;;;0.88;0.63;;;6.20;88.20;;;;;;4147668;28;20036;-74
2021/12/18 04:40:54;;;;;;;1.33;0.55;;;6.20;88.30;;;;;;4149367;28;20392;-74
2021/12/18 04:42:55;;;;;;;0.95;0.70;;;6.20;88.40;;;;;;4140497;28;20476;-74
2021/12/18 04:44:56;;;;;;;0.75;0.52;;;6.20;88.40;;;;;;4157784;28;20100;-74
2021/12/18 04:46:56;;;;;;;2.08;0.82;;;6.20;88.50;;;;;;4151689;28;20037;-73
2021/12/18 04:48:57;;;;;;;1.30;0.75;;;6.20;88.50;;;;;;4155449;28;20479;-74
2021/12/18 04:50:58;;;;;;;3.65;0.50;;;6.20;88.60;;;;;;4151797;28;20025;-74
2021/12/18 04:52:58;;;;;;;1.50;0.63;;;6.20;88.50;;;;;;4165215;28;20059;-74
2021/12/18 04:54:59;;;;;;;0.73;0.50;;;6.20;88.50;;;;;;4145546;28;20065;-74
2021/12/18 04:57:00;;;;;;;0.75;0.50;;;6.20;88.40;;;;;;4157498;28;20037;-74
2021/12/18 04:59:00;;;;;;;0.65;0.57;;;6.20;88.40;;;;;;4154868;28;20079;-75
2021/12/18 05:01:01;;;;;;;3.17;0.50;;;6.20;88.30;;;;;;4148268;28;20026;-74
2021/12/18 05:03:05;;;;;;;0.57;0.50;;;6.20;88.30;;;;;;4154241;28;20029;-74
2021/12/18 05:05:06;;;;;;;1.40;0.70;;;6.20;88.20;;;;;;4140757;28;20030;-74
2021/12/18 05:07:10;;;;;;;1.20;0.80;;;6.20;88.30;;;;;;4147629;28;20104;-74
2021/12/18 05:09:14;;;;;;;1.42;0.73;;;6.20;88.30;;;;;;4161634;28;20175;-74
2021/12/18 05:11:14;;;;;;;0.57;0.45;;;6.20;88.30;;;;;;4167341;28;20163;-74
2021/12/18 05:13:15;;;;;;;0.43;0.30;;;6.20;88.30;;;;;;4148339;28;20030;-74
2021/12/18 05:15:16;;;;;;;0.82;0.50;;;6.20;88.30;;;;;;4150099;28;20061;-75
2021/12/18 05:17:16;;;;;;;0.80;0.45;;;6.20;89.10;;;;;;4153445;28;20112;-74
2021/12/18 05:19:17;;;;;;;0.90;0.45;;;6.20;89.00;;;;;;4148037;28;20291;-74
2021/12/18 05:21:17;;;;;;;0.57;0.45;;;6.20;88.90;;;;;;4153532;28;20037;-74
2021/12/18 05:23:18;;;;;;;1.40;0.55;;;6.20;88.20;;;;;;4153091;28;20033;-74
2021/12/18 05:25:19;;;;;;;0.80;0.50;;;6.20;88.20;;;;;;4165610;28;20071;-74
2021/12/18 05:27:19;;;;;;;2.30;0.70;;;6.20;88.20;;;;;;4138939;28;20026;-74
2021/12/18 05:29:20;;;;;;;1.52;0.80;;;6.20;88.20;;;;;;4151821;28;20030;-75
2021/12/18 05:31:21;;;;;;;1.02;0.50;;;6.10;88.10;;;;;;4151775;28;20507;-74
2021/12/18 05:33:21;;;;;;;11.35;0.93;;;6.10;88.10;;;;;;4162918;28;20033;-75
2021/12/18 05:35:22;;;;;;;1.38;0.60;;;6.10;88.80;;;;;;4141798;28;20096;-74
2021/12/18 05:39:27;;;;;;;2.63;0.60;;;6.10;88.00;;;;;;4146890;28;20404;-74
2021/12/18 05:41:28;;;;;;;1.00;0.50;;;6.10;87.90;;;;;;4147607;28;20068;-73
2021/12/18 05:43:29;;;;;;;1.05;0.57;;;6.10;88.00;;;;;;4168475;28;20037;-74
2021/12/18 05:45:29;;;;;;;0.80;0.45;;;6.10;87.90;;;;;;4154962;28;20094;-75
2021/12/18 05:47:30;;;;;;;0.80;0.50;;;6.00;87.90;;;;;;4165329;28;20107;-73
2021/12/18 05:49:31;;;;;;;0.85;0.55;;;6.10;87.90;;;;;;4152771;28;20403;-74
2021/12/18 05:51:32;;;;;;;0.75;0.45;;;6.00;88.70;;;;;;4151685;28;20551;-75
2021/12/18 05:53:33;;;;;;;1.00;0.65;;;6.10;88.00;;;;;;4130582;28;20034;-74
2021/12/18 05:55:33;;;;;;;1.60;0.50;;;6.00;88.00;;;;;;4155082;28;20013;-75
2021/12/18 05:57:34;;;;;;;1.13;0.65;;;6.10;88.00;;;;;;4155871;28;20117;-75
2021/12/18 05:59:35;;;;;;;1.63;0.80;;;6.00;88.10;;;;;;4161868;28;20033;-74
2021/12/18 06:01:36;;;;;;;0.65;0.35;;;6.00;88.10;;;;;;4148986;28;20057;-74
2021/12/18 06:03:36;;;;;;;0.82;0.50;;;6.00;88.20;;;;;;4151011;28;20068;-72
2021/12/18 06:05:37;;;;;;;1.20;0.60;;;6.00;88.20;;;;;;4150525;28;20096;-74
2021/12/18 06:09:44;;;;;;;1.77;0.90;;;6.00;88.40;;;;;;4139962;28;20037;-75
2021/12/18 06:11:45;;;;;;;1.70;1.00;;;6.00;88.40;;;;;;4146806;28;20030;-73
2021/12/18 06:13:50;;;;;;;1.40;0.70;;;6.00;88.50;;;;;;4147062;28;20401;-74
2021/12/18 06:15:50;;;;;;;2.33;1.00;;;6.00;88.50;;;;;;4142655;28;20093;-74
2021/12/18 06:17:53;;;;;;;1.00;0.60;;;6.00;88.70;;;;;;4141590;28;20116;-74
2021/12/18 06:19:53;;;;;;;2.37;1.00;;;6.00;88.80;;;;;;4140105;28;20137;-74
2021/12/18 06:21:54;;;;;;;1.83;0.95;;;6.00;88.70;;;;;;4153724;28;20503;-74
2021/12/18 06:23:55;;;;;;;1.48;0.95;;;6.00;88.50;;;;;;4153903;28;20026;-74
2021/12/18 06:25:56;;;;;;;1.42;0.88;;;6.00;88.80;;;;;;4141280;28;20514;-74
2021/12/18 06:27:56;;;;;;;1.48;0.73;;;6.00;88.70;;;;;;4152143;28;20645;-75
2021/12/18 06:29:58;;;;;;;1.48;0.82;;;6.00;88.70;;;;;;4165732;28;20059;-74
2021/12/18 06:31:58;;;;;;;2.10;1.00;;;6.00;88.80;;;;;;4142602;28;20042;-74
2021/12/18 06:33:59;;;;;;;3.17;1.48;;;6.00;88.70;;;;;;4143901;28;20439;-74
2021/12/18 06:36:00;;;;;;;1.52;1.00;;;5.90;88.60;;;;;;4152737;28;20075;-74
2021/12/18 06:38:00;;;;;;;2.15;1.20;;;6.00;88.80;;;;;;4146645;28;20044;-74
2021/12/18 06:40:01;;;;;;;2.05;1.20;;;6.00;88.70;;;;;;4150885;28;20659;-74
2021/12/18 06:42:02;;;;;;;2.47;1.10;;;5.90;88.80;;;;;;4149691;28;20032;-74
2021/12/18 06:44:02;;;;;;;4.65;1.27;;;5.90;88.80;;;;;;4151019;28;20446;-73
2021/12/18 06:46:03;;;;;;;3.33;1.80;;;5.90;88.70;;;;;;4153576;28;20025;-74
2021/12/18 06:48:04;;;;;;;2.00;1.27;;;5.90;88.60;;;;;;4135342;28;20026;-74
2021/12/18 06:50:05;;;;;;;2.60;1.38;;;5.80;88.80;;;;;;4127775;28;20027;-75
2021/12/18 06:52:05;;;;;;;2.50;1.40;;;5.90;89.00;;;;;;4155546;28;20044;-74
2021/12/18 06:54:06;;;;;;;3.50;1.45;;;5.80;89.00;;;;;;4145644;28;20034;-74
2021/12/18 06:56:07;;;;;;;3.38;1.67;;;5.80;89.10;;;;;;4149935;28;20036;-74
2021/12/18 06:58:07;;;;;;;4.07;1.50;;;5.80;89.20;;;;;;4150582;28;20363;-74
2021/12/18 07:00:10;;;;;;;3.33;1.60;;;5.80;89.40;;;;;;4142891;28;20014;-74
2021/12/18 07:02:11;;;;;;;5.07;1.80;;;5.80;89.50;;;;;;4134161;28;20101;-74
2021/12/18 07:04:11;;;;;;;5.25;1.75;;;5.80;89.50;;;;;;4148519;28;20109;-74
2021/12/18 07:06:12;;;;;;;126.97;42.97;;;5.80;89.60;;;;;;4132240;28;20050;-73
2021/12/18 07:08:13;;;;;;;42.05;22.17;;;5.90;90.20;;;;;;4154135;28;20420;-74
2021/12/18 07:10:14;;;;;;;18.98;11.23;;;5.90;89.90;;;;;;4148829;28;20033;-74
2021/12/18 07:12:15;;;;;;;11.65;6.95;;;5.90;89.90;;;;;;4146142;28;20037;-74
2021/12/18 07:14:15;;;;;;;6.45;4.43;;;5.90;90.00;;;;;;4146458;28;20033;-74
2021/12/18 07:16:16;;;;;;;8.32;4.03;;;5.90;90.00;;;;;;4143726;28;20032;-74
2021/12/18 07:18:17;;;;;;;6.50;4.40;;;5.90;90.00;;;;;;4148579;28;20488;-74
2021/12/18 07:20:17;;;;;;;8.73;4.65;;;5.90;90.00;;;;;;4149508;28;20534;-74
2021/12/18 07:22:18;;;;;;;11.82;6.53;;;6.00;90.10;;;;;;4144734;28;20056;-74
2021/12/18 07:24:19;;;;;;;8.40;3.10;;;6.00;90.10;;;;;;4145994;28;20706;-73
2021/12/18 07:26:19;;;;;;;8.15;2.83;;;6.00;90.20;;;;;;4164002;28;20486;-74
2021/12/18 07:28:20;;;;;;;5.70;1.90;;;6.00;90.20;;;;;;4148720;28;20039;-74
2021/12/18 07:30:21;;;;;;;3.80;1.85;;;6.00;90.20;;;;;;4146903;28;20038;-74
2021/12/18 07:32:21;;;;;;;4.60;1.95;;;6.00;90.30;;;;;;4165973;28;20120;-74
2021/12/18 07:34:22;;;;;;;9.02;2.40;;;6.00;90.30;;;;;;4151782;28;20100;-74
2021/12/18 07:36:23;;;;;;;8.40;2.03;;;6.00;90.40;;;;;;4137771;28;20034;-74
2021/12/18 07:38:24;;;;;;;6.00;1.75;;;6.00;90.40;;;;;;4151568;28;20053;-73
2021/12/18 07:40:25;;;;;;;10.35;2.70;;;6.00;90.50;;;;;;4149181;28;20033;-74
2021/12/18 07:42:25;;;;;;;4.65;1.80;;;6.00;90.50;;;;;;4154033;28;20117;-74
2021/12/18 07:44:26;;;;;;;6.68;2.38;;;6.10;90.50;;;;;;4159359;28;20021;-74
2021/12/18 07:46:27;;;;;;;6.97;2.40;;;6.10;90.50;;;;;;4156145;28;20044;-74
2021/12/18 07:48:28;;;;;;;5.03;2.38;;;6.10;90.40;;;;;;4159607;28;20033;-73
2021/12/18 07:50:29;;;;;;;8.45;2.75;;;6.10;90.80;;;;;;4156583;28;20202;-74
2021/12/18 07:52:30;;;;;;;16.10;3.22;;;6.10;90.40;;;;;;4154239;28;20040;-73
2021/12/18 07:54:30;;;;;;;7.05;2.70;;;6.10;90.40;;;;;;4153657;28;20113;-74
2021/12/18 07:56:31;;;;;;;9.30;2.58;;;6.10;90.50;;;;;;4155440;28;20029;-74
2021/12/18 07:58:32;;;;;;;11.70;2.58;;;6.10;90.50;;;;;;4157421;28;20045;-74
2021/12/18 08:00:33;;;;;;;11.18;3.22;;;6.00;90.50;;;;;;4151525;28;20026;-74
2021/12/18 08:02:34;;;;;;;10.52;2.85;;;6.00;90.50;;;;;;4153053;28;20034;-74
2021/12/18 08:04:34;;;;;;;17.55;3.78;;;6.10;90.50;;;;;;4136572;28;20416;-73
2021/12/18 08:06:35;;;;;;;10.38;2.80;;;6.10;90.50;;;;;;4152108;28;20218;-74
2021/12/18 08:08:36;;;;;;;17.67;2.83;;;6.10;90.60;;;;;;4151128;28;20029;-74
2021/12/18 08:10:37;;;;;;;12.07;3.20;;;6.10;90.50;;;;;;4151240;28;20040;-73
2021/12/18 08:12:38;;;;;;;18.00;2.85;;;6.10;90.50;;;;;;4152022;28;20056;-73
2021/12/18 08:14:39;;;;;;;7.75;2.50;;;6.10;90.60;;;;;;4145489;28;20076;-74
2021/12/18 08:16:39;;;;;;;9.48;2.78;;;6.10;90.50;;;;;;4132914;28;20113;-74
2021/12/18 08:18:40;;;;;;;15.18;2.33;;;6.20;90.50;;;;;;4152664;28;20282;-74
2021/12/18 08:20:41;;;;;;;16.83;2.60;;;6.20;90.50;;;;;;4148128;28;20036;-73
2021/12/18 08:22:42;;;;;;;9.10;2.35;;;6.20;90.50;;;;;;4135920;28;20077;-75
2021/12/18 08:24:42;;;;;;;9.73;2.20;;;6.20;90.50;;;;;;4154113;28;20029;-74
2021/12/18 08:26:43;;;;;;;9.30;2.53;;;6.30;90.50;;;;;;4149620;28;20022;-74
2021/12/18 08:28:44;;;;;;;14.70;3.15;;;6.30;90.50;;;;;;4151330;28;20033;-74
2021/12/18 08:30:44;;;;;;;16.92;3.03;;;6.30;90.60;;;;;;4149798;28;20037;-74
2021/12/18 08:32:45;;;;;;;14.95;3.28;;;6.40;90.60;;;;;;4151205;28;20048;-73
2021/12/18 08:34:46;;;;;;;20.38;3.85;;;6.30;90.50;;;;;;4153491;28;20114;-74
2021/12/18 08:36:47;;;;;;;14.50;2.67;;;6.40;90.60;;;;;;4150140;28;20032;-74
2021/12/18 08:38:49;;;;;;;20.15;3.90;;;6.40;90.60;;;;;;4153901;28;20038;-74
2021/12/18 08:40:50;;;;;;;15.27;3.25;;;6.40;90.60;;;;;;4153445;28;20026;-74
2021/12/18 08:42:51;;;;;;;18.02;3.50;;;6.50;90.50;;;;;;4139415;28;20026;-74
2021/12/18 08:44:52;;;;;;;24.55;3.15;;;6.50;90.40;;;;;;4154250;28;20034;-73
2021/12/18 08:46:53;;;;;;;22.73;3.35;;;6.60;90.40;;;;;;4149965;28;20030;-74
2021/12/18 08:48:54;;;;;;;22.42;3.17;;;6.60;90.30;;;;;;4166492;28;20116;-73
2021/12/18 08:50:54;;;;;;;20.63;3.33;;;6.60;90.20;;;;;;4135892;28;20511;-74
2021/12/18 08:52:55;;;;;;;14.90;3.03;;;6.60;90.20;;;;;;4151249;28;20681;-74
2021/12/18 08:54:56;;;;;;;23.42;3.30;;;6.70;90.40;;;;;;4154017;28;20037;-73
2021/12/18 08:56:56;;;;;;;20.55;3.20;;;6.70;90.00;;;;;;4150620;28;20037;-73
2021/12/18 08:58:58;;;;;;;20.60;3.33;;;6.70;90.00;;;;;;4156043;28;20148;-74
2021/12/18 09:00:58;;;;;;;22.60;4.38;;;6.80;90.00;;;;;;4148724;28;20026;-74
2021/12/18 09:03:00;;;;;;;20.63;3.50;;;6.80;90.00;;;;;;4150332;28;20506;-74
2021/12/18 09:05:00;;;;;;;26.98;4.32;;;6.80;89.80;;;;;;4148814;28;20064;-74
2021/12/18 09:07:01;;;;;;;19.98;3.40;;;6.80;89.60;;;;;;4150787;28;20022;-73
2021/12/18 09:09:02;;;;;;;14.63;2.70;;;6.90;89.60;;;;;;4151244;28;20526;-74
2021/12/18 09:11:03;;;;;;;24.83;3.63;;;6.90;89.60;;;;;;4143750;28;20324;-74
2021/12/18 09:13:03;;;;;;;21.30;3.97;;;6.90;89.40;;;;;;4148337;28;20069;-73
2021/12/18 09:15:04;;;;;;;15.80;3.10;;;6.90;88.90;;;;;;4152984;28;20116;-73
2021/12/18 09:17:05;;;;;;;32.03;3.30;;;6.90;88.70;;;;;;4150360;28;20045;-74
2021/12/18 09:19:06;;;;;;;20.90;4.25;;;6.90;88.40;;;;;;4146620;28;20061;-73
2021/12/18 09:21:07;;;;;;;29.08;4.22;;;6.90;88.50;;;;;;4153906;28;20030;-73
2021/12/18 09:23:08;;;;;;;42.10;5.07;;;7.00;88.60;;;;;;4153945;28;20022;-74
2021/12/18 09:25:09;;;;;;;20.02;3.10;;;7.00;88.00;;;;;;4145891;28;20034;-73
2021/12/18 09:27:09;;;;;;;19.55;3.25;;;7.00;87.90;;;;;;4154606;28;20120;-74
2021/12/18 09:29:10;;;;;;;21.20;3.45;;;7.00;87.80;;;;;;4147890;28;20405;-73
2021/12/18 09:31:11;;;;;;;18.58;3.92;;;6.90;87.30;;;;;;4145557;28;20045;-74
2021/12/18 09:33:13;;;;;;;21.42;3.72;;;7.00;87.10;;;;;;4152455;28;20503;-74
2021/12/18 09:35:14;;;;;;;17.55;2.90;;;7.10;87.10;;;;;;4154642;28;20120;-74
2021/12/18 09:37:15;;;;;;;21.00;3.83;;;7.10;87.20;;;;;;4138591;28;20032;-73
2021/12/18 09:39:15;;;;;;;23.25;3.45;;;7.10;86.60;;;;;;4157235;28;20034;-73
2021/12/18 09:41:16;;;;;;;16.40;2.63;;;7.10;86.30;;;;;;4162957;28;20028;-74
2021/12/18 09:43:16;;;;;;;26.73;3.58;;;7.10;86.50;;;;;;4115022;28;20062;-73
2021/12/18 09:45:17;;;;;;;20.58;3.45;;;7.10;86.30;;;;;;4155537;28;20112;-73
2021/12/18 09:47:18;;;;;;;26.00;3.70;;;7.10;86.20;;;;;;4148438;28;20081;-74
2021/12/18 09:49:19;;;;;;;17.73;2.72;;;7.10;86.00;;;;;;4151081;28;20341;-72
2021/12/18 09:51:27;;;;;;;20.55;3.03;;;7.20;86.00;;;;;;4147766;28;20092;-73
2021/12/18 09:53:27;;;;;;;26.75;4.20;;;7.20;85.90;;;;;;4150620;28;20087;-72
2021/12/18 09:55:28;;;;;;;21.23;3.65;;;7.20;85.50;;;;;;4145568;28;20049;-73
2021/12/18 09:57:29;;;;;;;30.00;4.82;;;7.20;85.70;;;;;;4129925;28;20045;-73
2021/12/18 09:59:29;;;;;;;22.27;3.88;;;7.20;85.30;;;;;;4152514;28;20613;-74
2021/12/18 10:01:30;;;;;;;29.08;4.13;;;7.20;85.30;;;;;;4151390;28;20029;-74
2021/12/18 10:04:01;;;;;;;21.02;3.88;;;7.20;85.30;;;;;;4154606;28;20041;-74
2021/12/18 10:06:02;;;;;;;18.75;3.20;;;7.20;85.60;;;;;;4147976;28;20026;-73
2021/12/18 10:08:08;;;;;;;27.83;4.47;;;7.20;85.50;;;;;;4139238;28;20140;-73
2021/12/18 10:10:09;;;;;;;30.25;4.30;;;7.30;86.40;;;;;;4150829;28;20030;-73
2021/12/18 10:12:18;;;;;;;23.27;4.07;;;7.20;86.20;;;;;;4124561;28;20472;-73
2021/12/18 10:14:30;;;;;;;28.98;4.60;;;7.20;85.70;;;;;;4151428;28;20036;-73
2021/12/18 10:16:31;;;;;;;25.85;4.13;;;7.30;85.70;;;;;;4165608;28;20036;-73
2021/12/18 10:18:32;;;;;;;21.40;3.10;;;7.30;85.50;;;;;;4138041;28;20046;-74
2021/12/18 10:20:33;;;;;;;34.95;4.65;;;7.30;85.50;;;;;;4148032;28;20059;-73
2021/12/18 10:22:33;;;;;;;24.50;4.22;;;7.30;85.40;;;;;;4150064;28;20040;-73
2021/12/18 10:24:38;;;;;;;24.20;3.15;;;7.30;85.00;;;;;;4145800;28;20091;-73
2021/12/18 10:26:41;;;;;;;20.45;4.05;;;7.40;85.20;;;;;;4120073;28;20069;-73
2021/12/18 10:28:44;;;;;;;27.92;4.03;;;7.40;85.10;;;;;;4147131;28;20081;-73
2021/12/18 10:30:48;;;;;;;22.92;3.33;;;7.40;85.10;;;;;;4145088;28;20045;-73
2021/12/18 10:33:08;;;;;;;32.67;4.45;;;7.40;85.00;;;;;;4145532;28;20553;-73
2021/12/18 10:35:09;;;;;;;20.85;3.47;;;7.40;85.10;;;;;;4152807;28;20558;-72
2021/12/18 10:37:20;;;;;;;29.17;4.00;;;7.40;84.80;;;;;;4137466;28;20036;-73
2021/12/18 10:39:21;;;;;;;28.90;4.32;;;7.40;85.00;;;;;;4130639;28;20073;-73
2021/12/18 10:41:26;;;;;;;20.80;4.75;;;7.50;84.80;;;;;;4142971;28;20037;-74
2021/12/18 10:43:27;;;;;;;24.40;3.45;;;7.50;84.90;;;;;;4145084;28;20033;-73
2021/12/18 10:45:27;;;;;;;33.30;5.05;;;7.50;84.90;;;;;;4145863;28;20152;-72
2021/12/18 10:47:43;;;;;;;28.90;3.50;;;7.50;84.70;;;;;;4114162;28;20053;-73
2021/12/18 10:49:44;;;;;;;21.88;3.60;;;7.50;84.60;;;;;;4144663;28;20042;-73
2021/12/18 10:51:45;;;;;;;28.08;4.80;;;7.50;84.60;;;;;;4149338;28;20075;-72
2021/12/18 10:53:46;;;;;;;25.42;3.67;;;7.50;84.50;;;;;;4128141;28;20105;-72
2021/12/18 10:55:54;;;;;;;25.52;4.32;;;7.50;84.60;;;;;;4149493;28;20065;-72
2021/12/18 10:57:54;;;;;;;31.85;3.83;;;7.50;84.50;;;;;;4134984;28;20042;-72
2021/12/18 10:59:57;;;;;;;30.02;4.35;;;7.50;84.30;;;;;;4154144;28;20116;-72
2021/12/18 11:01:59;;;;;;;21.48;4.00;;;7.50;84.40;;;;;;4143785;28;20133;-73
2021/12/18 11:03:59;;;;;;;25.38;4.47;;;7.50;84.30;;;;;;4163473;28;20025;-72
2021/12/18 11:06:01;;;;;;;21.00;3.28;;;7.50;84.30;;;;;;4145297;28;20025;-72
2021/12/18 11:08:08;;;;;;;26.98;4.13;;;7.50;84.20;;;;;;4147769;28;20056;-73
2021/12/18 11:15:01;;;;;;;33.15;4.55;;;7.60;84.20;;;;;;4148199;28;20034;-72
2021/12/18 11:17:03;;;;;;;25.85;4.07;;;7.60;84.10;;;;;;4147375;28;20531;-73
2021/12/18 11:19:06;;;;;;;20.20;4.47;;;7.70;84.20;;;;;;4165455;28;20365;-72
2021/12/18 11:21:06;;;;;;;19.90;3.95;;;7.70;83.90;;;;;;4151620;28;20040;-73
2021/12/18 11:23:07;;;;;;;21.90;4.30;;;7.70;84.10;;;;;;4166574;28;20601;-73
2021/12/18 11:25:11;;;;;;;26.45;5.82;;;7.70;84.00;;;;;;4153931;28;20025;-73
2021/12/18 11:27:13;;;;;;;29.35;5.10;;;7.80;83.90;;;;;;4141349;28;20225;-73
2021/12/18 11:29:46;;;;;;;29.38;4.57;;;7.80;84.10;;;;;;4150823;28;20077;-73
2021/12/18 11:31:47;;;;;;;22.25;4.20;;;7.80;83.80;;;;;;4139056;28;20042;-73